createdAt,value
2023-02-11T00:04:49.542Z,103541.50
2023-02-11T00:09:51.619Z,103545.28
2023-02-11T00:14:53.609Z,103541.88
2023-02-11T00:19:55.787Z,103535.47
2023-02-11T00:24:57.950Z,103532.81
2023-02-11T00:30:02.557Z,103527.06
2023-02-11T00:35:06.317Z,103531.00
2023-02-11T00:40:09.139Z,103526.09
2023-02-11T00:45:11.651Z,103522.06
2023-02-11T00:50:13.802Z,103515.28
2023-02-11T00:55:17.204Z,103514.31
2023-02-11T01:00:19.581Z,103508.22
2023-02-11T01:05:21.995Z,103502.84
2023-02-11T01:10:24.190Z,103494.38
2023-02-11T01:15:27.675Z,103491.16
2023-02-11T01:20:30.811Z,103488.63
2023-02-11T01:25:32.905Z,103486.09
2023-02-11T01:30:35.941Z,103491.03
2023-02-11T01:35:40.613Z,103474.75
2023-02-11T01:40:51.237Z,103467.50
2023-02-11T01:46:04.521Z,103463.28
2023-02-11T01:51:14.662Z,103461.59
2023-02-11T01:56:37.183Z,103453.47
2023-02-11T02:05:26.303Z,103441.63
2023-02-11T02:10:30.434Z,103425.38
2023-02-11T02:15:34.589Z,103431.81
2023-02-11T02:20:41.146Z,103424.69
2023-02-11T02:26:15.764Z,103420.59
2023-02-11T02:31:47.278Z,103413.00
2023-02-11T02:37:08.383Z,103406.56
2023-02-11T02:42:10.684Z,103398.94
2023-02-11T02:47:12.834Z,103392.38
2023-02-11T02:52:35.001Z,103382.69
2023-02-11T02:58:18.938Z,103389.31
2023-02-11T03:03:42.683Z,103383.06
2023-02-11T03:09:13.206Z,103386.31
2023-02-11T03:14:18.581Z,103382.78
2023-02-11T03:19:30.847Z,103383.13
2023-02-11T03:24:39.321Z,103385.31
2023-02-11T03:29:49.395Z,103377.03
2023-02-11T03:34:56.477Z,103379.25
2023-02-11T03:40:12.143Z,103377.72
2023-02-11T03:45:18.823Z,103375.53
2023-02-11T03:50:22.217Z,103382.81
2023-02-11T03:55:26.749Z,103381.63
2023-02-11T04:00:36.786Z,103377.06
2023-02-11T04:05:39.372Z,103383.16
2023-02-11T04:10:41.122Z,103377.03
2023-02-11T04:15:43.256Z,103379.06
2023-02-11T04:20:45.191Z,103379.72
2023-02-11T04:25:47.134Z,103377.03
2023-02-11T04:30:52.558Z,103372.44
2023-02-11T04:35:54.631Z,103386.44
2023-02-11T04:40:58.000Z,103380.16
2023-02-11T04:46:00.065Z,103394.19
2023-02-11T04:51:02.970Z,103396.88
2023-02-11T04:56:05.188Z,103387.56
2023-02-11T05:07:22.852Z,103389.50
2023-02-11T05:12:25.272Z,103386.94
2023-02-11T05:17:27.308Z,103389.25
2023-02-11T05:22:29.295Z,103386.19
2023-02-11T05:27:31.282Z,103395.28
2023-02-11T05:32:33.596Z,103386.53
2023-02-11T05:37:35.714Z,103388.78
2023-02-11T05:42:38.090Z,103394.03
2023-02-11T05:47:40.144Z,103395.41
2023-02-11T05:52:42.304Z,103394.91
2023-02-11T05:57:45.475Z,103393.41
2023-02-11T06:02:47.545Z,103393.25
2023-02-11T06:07:49.506Z,103391.06
2023-02-11T06:12:51.506Z,103387.72
2023-02-11T06:17:53.625Z,103400.88
2023-02-11T06:22:55.642Z,103403.59
2023-02-11T06:27:57.706Z,103404.59
2023-02-11T06:32:59.720Z,103399.50
2023-02-11T06:38:01.887Z,103404.50
2023-02-11T06:43:04.033Z,103414.56
2023-02-11T06:48:06.209Z,103415.88
2023-02-11T06:53:08.372Z,103414.34
2023-02-11T06:58:10.589Z,103415.19
2023-02-11T07:03:12.951Z,103423.13
2023-02-11T07:08:15.437Z,103424.50
2023-02-11T07:13:17.490Z,103427.03
2023-02-11T07:18:19.688Z,103426.03
2023-02-11T07:23:21.654Z,103430.81
2023-02-11T07:28:23.873Z,103425.09
2023-02-11T07:33:26.085Z,103427.81
2023-02-11T07:38:28.404Z,103427.31
2023-02-11T07:43:31.563Z,103427.84
2023-02-11T07:48:33.637Z,103433.75
2023-02-11T07:53:35.859Z,103441.03
2023-02-11T07:58:39.284Z,103446.09
2023-02-11T08:03:43.124Z,103447.13
2023-02-11T08:08:45.349Z,103451.56
2023-02-11T08:13:48.167Z,103456.00
2023-02-11T08:18:52.189Z,103451.63
2023-02-11T08:23:54.692Z,103443.00
2023-02-11T08:28:57.598Z,103441.03
2023-02-11T08:34:00.011Z,103451.63
2023-02-11T08:39:18.514Z,103444.78
2023-02-11T08:44:22.183Z,103446.91
2023-02-11T08:49:26.845Z,103442.16
2023-02-11T08:54:28.970Z,103439.88
2023-02-11T08:59:32.169Z,103446.59
2023-02-11T09:04:34.133Z,103443.16
2023-02-11T09:09:36.395Z,103434.47
2023-02-11T09:14:38.712Z,103433.28
2023-02-11T09:19:40.817Z,103428.31
2023-02-11T09:24:42.776Z,103432.53
2023-02-11T09:29:44.826Z,103435.03
2023-02-11T09:34:46.904Z,103447.22
2023-02-11T09:39:49.005Z,103440.72
2023-02-11T09:44:52.609Z,103442.78
2023-02-11T09:50:04.352Z,103435.63
2023-02-11T09:55:23.184Z,103439.75
2023-02-11T10:01:08.687Z,103442.19
2023-02-11T10:06:20.274Z,103444.13
2023-02-11T10:12:03.600Z,103442.59
2023-02-11T10:17:12.505Z,103435.72
2023-02-11T10:22:28.484Z,103446.63
2023-02-11T10:27:35.991Z,103444.22
2023-02-11T10:32:57.658Z,103439.84
2023-02-11T10:38:00.090Z,103436.72
2023-02-11T10:43:06.331Z,103440.94
2023-02-11T10:48:40.216Z,103436.59
2023-02-11T10:53:42.392Z,103429.56
2023-02-11T10:58:54.058Z,103426.88
2023-02-11T11:03:56.319Z,103418.31
2023-02-11T11:08:58.261Z,103411.44
2023-02-11T11:14:03.270Z,103411.13
2023-02-11T11:19:08.063Z,103405.66
2023-02-11T11:24:24.553Z,103399.84
2023-02-11T11:29:50.324Z,103395.53
2023-02-11T11:34:59.959Z,103393.84
2023-02-11T11:40:17.346Z,103388.72
2023-02-11T11:45:26.417Z,103391.50
2023-02-11T11:50:37.091Z,103378.78
2023-02-11T11:55:39.580Z,103363.94
2023-02-11T12:01:20.956Z,103360.38
2023-02-11T12:06:41.686Z,103353.66
2023-02-11T12:11:52.584Z,103355.00
2023-02-11T12:17:26.434Z,103349.41
2023-02-11T12:22:43.072Z,103339.06
2023-02-11T12:28:19.997Z,103322.06
2023-02-11T12:33:30.167Z,103329.69
2023-02-11T12:38:37.820Z,103325.78
2023-02-11T12:43:42.548Z,103326.28
2023-02-11T12:48:57.016Z,103321.75
2023-02-11T12:54:26.993Z,103317.34
2023-02-11T12:59:47.667Z,103306.88
2023-02-11T13:04:57.425Z,103309.53
2023-02-11T13:10:15.596Z,103311.34
2023-02-11T13:15:18.111Z,103311.81
2023-02-11T13:20:23.265Z,103306.84
2023-02-11T13:25:40.951Z,103296.94
2023-02-11T13:31:01.977Z,103290.28
2023-02-11T13:36:04.834Z,103298.00
2023-02-11T13:41:28.563Z,103287.31
2023-02-11T13:46:50.852Z,103275.75
2023-02-11T13:51:54.728Z,103270.97
2023-02-11T13:57:23.211Z,103273.09
2023-02-11T14:02:52.635Z,103260.91
2023-02-11T14:08:28.166Z,103263.22
2023-02-11T14:13:37.191Z,103263.41
2023-02-11T14:18:48.910Z,103255.97
2023-02-11T14:23:54.770Z,103267.53
2023-02-11T14:29:18.228Z,103269.03
2023-02-11T14:34:43.476Z,103267.84
2023-02-11T14:40:02.952Z,103259.47
2023-02-11T14:45:10.948Z,103251.84
2023-02-11T14:50:26.126Z,103248.03
2023-02-11T14:55:40.167Z,103253.13
2023-02-11T15:01:09.109Z,103234.47
2023-02-11T15:06:24.584Z,103235.59
2023-02-11T15:11:31.020Z,103231.47
2023-02-11T15:16:33.706Z,103229.25
2023-02-11T15:21:36.756Z,103240.56
2023-02-11T15:26:38.839Z,103242.19
2023-02-11T15:31:40.922Z,103236.63
2023-02-11T15:36:43.229Z,103228.09
2023-02-11T15:41:45.150Z,103228.97
2023-02-11T15:46:47.518Z,103220.66
2023-02-11T15:51:50.744Z,103221.31
2023-02-11T15:56:59.437Z,103214.88
2023-02-11T16:02:35.212Z,103214.69
2023-02-11T16:07:45.638Z,103212.00
2023-02-11T16:13:06.254Z,103215.38
2023-02-11T16:18:39.117Z,103217.47
2023-02-11T16:23:43.198Z,103220.03
2023-02-11T16:28:45.388Z,103219.84
2023-02-11T16:33:47.428Z,103219.88
2023-02-11T16:38:49.511Z,103211.72
2023-02-11T16:43:51.677Z,103224.56
2023-02-11T16:48:56.077Z,103224.84
2023-02-11T16:53:58.280Z,103219.84
2023-02-11T16:59:00.779Z,103227.44
2023-02-11T17:04:03.359Z,103225.16
2023-02-11T17:09:06.792Z,103226.66
2023-02-11T17:14:08.971Z,103216.13
2023-02-11T17:19:14.437Z,103227.47
2023-02-11T17:24:16.594Z,103224.97
2023-02-11T17:29:22.271Z,103237.13
2023-02-11T17:34:24.314Z,103247.44
2023-02-11T17:39:27.644Z,103242.41
2023-02-11T17:44:29.635Z,103241.75
2023-02-11T17:49:32.158Z,103254.16
2023-02-11T17:54:34.175Z,103255.63
2023-02-11T17:59:36.417Z,103254.38
2023-02-11T18:04:38.538Z,103255.63
2023-02-11T18:09:41.478Z,103257.06
2023-02-11T18:14:43.537Z,103263.13
2023-02-11T18:19:45.601Z,103261.88
2023-02-11T18:24:53.231Z,103269.63
2023-02-11T18:29:55.328Z,103269.00
2023-02-11T18:34:57.370Z,103274.03
2023-02-11T18:39:59.505Z,103276.13
2023-02-11T18:45:01.601Z,103279.28
2023-02-11T18:50:05.007Z,103279.69
2023-02-11T18:55:07.867Z,103283.66
2023-02-11T19:00:11.021Z,103284.72
2023-02-11T19:05:13.059Z,103287.00
2023-02-11T19:10:15.179Z,103302.09
2023-02-11T19:15:17.323Z,103298.94
2023-02-11T19:20:19.674Z,103292.78
2023-02-11T19:25:21.829Z,103297.59
2023-02-11T19:30:24.183Z,103302.38
2023-02-11T19:35:26.040Z,103300.66
2023-02-11T19:40:28.257Z,103291.84
2023-02-11T19:45:30.311Z,103300.00
2023-02-11T19:50:33.524Z,103309.81
2023-02-11T19:55:35.962Z,103303.47
2023-02-11T20:00:47.824Z,103307.41
2023-02-11T20:05:50.749Z,103312.56
2023-02-11T20:10:53.291Z,103317.69
2023-02-11T20:15:55.745Z,103316.56
2023-02-11T20:21:00.243Z,103321.47
2023-02-11T20:26:07.713Z,103310.94
2023-02-11T20:31:11.842Z,103309.59
2023-02-11T20:36:18.384Z,103314.97
2023-02-11T20:41:30.969Z,103316.97
2023-02-11T20:46:34.374Z,103308.56
2023-02-11T20:51:37.410Z,103302.84
2023-02-11T20:56:39.658Z,103301.75
2023-02-11T21:01:44.494Z,103304.22
2023-02-11T21:06:50.101Z,103300.41
2023-02-11T21:11:54.852Z,103307.22
2023-02-11T21:17:09.954Z,103316.16
2023-02-11T21:22:16.021Z,103308.75
2023-02-11T21:27:18.378Z,103318.34
2023-02-11T21:32:20.474Z,103311.59
2023-02-11T21:37:23.293Z,103318.00
2023-02-11T21:42:25.400Z,103310.78
2023-02-11T21:47:27.644Z,103315.31
2023-02-11T21:52:29.743Z,103319.44
2023-02-11T21:57:32.042Z,103317.28
2023-02-11T22:02:34.144Z,103314.47
2023-02-11T22:07:36.681Z,103306.06
2023-02-11T22:12:39.380Z,103320.38
2023-02-11T22:17:41.504Z,103320.28
2023-02-11T22:22:46.722Z,103322.53
2023-02-11T22:28:00.157Z,103326.81
2023-02-11T22:33:06.577Z,103319.22
2023-02-11T22:38:08.821Z,103325.22
2023-02-11T22:43:11.094Z,103316.97
2023-02-11T22:48:13.121Z,103321.09
2023-02-11T22:53:15.249Z,103320.81
2023-02-11T22:58:19.029Z,103319.66
2023-02-11T23:03:21.516Z,103315.94
2023-02-11T23:08:23.963Z,103318.84
2023-02-11T23:13:25.895Z,103315.13
2023-02-11T23:18:27.840Z,103323.34
2023-02-11T23:23:30.059Z,103327.81
2023-02-11T23:28:32.321Z,103318.75
2023-02-11T23:33:34.621Z,103320.69
2023-02-11T23:38:36.738Z,103329.72
2023-02-11T23:43:39.142Z,103319.97
2023-02-11T23:48:41.213Z,103324.41
2023-02-11T23:53:43.354Z,103325.13
2023-02-11T23:58:48.289Z,103311.25
